createdAt,value
2019-01-17T00:00:47.164Z,99095.08
2019-01-17T00:06:27.125Z,99114.45
2019-01-17T00:11:51.887Z,99118.98
2019-01-17T00:17:13.958Z,99132.16
2019-01-17T00:22:37.210Z,99130.17
2019-01-17T00:27:48.686Z,99133.06
2019-01-17T00:33:04.406Z,99136.90
2019-01-17T00:38:22.357Z,99136.65
2019-01-17T00:43:53.258Z,99130.70
2019-01-17T00:49:18.628Z,99123.50
2019-01-17T00:54:44.232Z,99120.56
2019-01-17T01:00:01.578Z,99116.62
2019-01-17T01:05:32.366Z,99117.77
2019-01-17T01:10:53.196Z,99115.41
2019-01-17T01:16:16.981Z,99101.58
2019-01-17T01:21:37.187Z,99104.25
2019-01-17T01:27:01.906Z,99107.44
2019-01-17T01:32:11.556Z,99106.02
2019-01-17T01:37:32.198Z,99113.12
2019-01-17T01:42:53.224Z,99098.91
2019-01-17T01:48:09.126Z,99101.78
2019-01-17T01:53:11.607Z,99090.17
2019-01-17T01:58:14.419Z,99105.84
2019-01-17T02:03:18.663Z,99112.77
2019-01-17T02:08:22.248Z,99126.30
2019-01-17T02:13:25.116Z,99101.02
2019-01-17T02:18:27.990Z,99081.55
2019-01-17T02:23:30.772Z,99083.92
2019-01-17T02:28:33.260Z,99093.31
2019-01-17T02:33:35.760Z,99088.23
2019-01-17T02:38:38.464Z,99089.31
2019-01-17T02:43:40.842Z,99093.53
2019-01-17T02:48:43.467Z,99097.53
2019-01-17T02:53:46.508Z,99089.52
2019-01-17T02:58:49.250Z,99099.25
2019-01-17T03:03:51.468Z,99096.37
2019-01-17T03:08:54.028Z,99091.97
2019-01-17T03:13:56.831Z,99094.64
2019-01-17T03:18:59.837Z,99081.89
2019-01-17T03:24:02.336Z,99081.08
2019-01-17T03:29:05.057Z,99080.04
2019-01-17T03:34:07.626Z,99090.91
2019-01-17T03:39:10.627Z,99096.97
2019-01-17T03:44:13.007Z,99095.30
2019-01-17T03:49:15.617Z,99096.37
2019-01-17T03:54:17.999Z,99098.52
2019-01-17T03:59:21.121Z,99090.64
2019-01-17T04:04:23.813Z,99095.11
2019-01-17T04:09:27.117Z,99089.39
2019-01-17T04:14:29.790Z,99082.06
2019-01-17T04:19:32.621Z,99091.05
2019-01-17T04:24:35.006Z,99087.81
2019-01-17T04:29:37.497Z,99087.93
2019-01-17T04:34:39.597Z,99089.92
2019-01-17T04:39:42.244Z,99093.01
2019-01-17T04:44:44.684Z,99086.27
2019-01-17T04:49:47.778Z,99100.64
2019-01-17T04:54:50.456Z,99088.37
2019-01-17T04:59:53.121Z,99084.34
2019-01-17T05:04:55.559Z,99089.62
2019-01-17T05:09:58.224Z,99079.35
2019-01-17T05:15:01.201Z,99076.63
2019-01-17T05:20:05.610Z,99079.58
2019-01-17T05:25:12.802Z,99081.44
2019-01-17T05:30:15.875Z,99085.08
2019-01-17T05:35:18.651Z,99092.28
2019-01-17T05:40:22.032Z,99074.66
2019-01-17T05:45:24.617Z,99078.55
2019-01-17T05:50:27.288Z,99084.44
2019-01-17T05:55:29.511Z,99084.23
2019-01-17T06:00:32.129Z,99077.03
2019-01-17T06:05:34.901Z,99078.61
2019-01-17T06:10:36.986Z,99087.53
2019-01-17T06:15:40.805Z,99084.83
2019-01-17T06:20:43.218Z,99084.14
2019-01-17T06:25:45.278Z,99082.28
2019-01-17T06:30:47.982Z,99078.06
2019-01-17T06:35:50.673Z,99076.81
2019-01-17T06:40:53.708Z,99086.89
2019-01-17T06:45:56.564Z,99089.66
2019-01-17T06:50:59.081Z,99088.48
2019-01-17T06:56:02.134Z,99090.52
2019-01-17T07:01:05.048Z,99080.17
2019-01-17T07:06:07.490Z,99081.55
2019-01-17T07:11:09.978Z,99089.83
2019-01-17T07:16:12.782Z,99107.17
2019-01-17T07:21:15.271Z,99098.12
2019-01-17T07:26:17.654Z,99100.53
2019-01-17T07:31:20.360Z,99117.14
2019-01-17T07:36:23.255Z,99128.90
2019-01-17T07:41:26.100Z,99109.70
2019-01-17T07:46:28.961Z,99118.13
2019-01-17T07:51:31.966Z,99118.57
2019-01-17T07:56:34.701Z,99127.94
2019-01-17T08:01:37.292Z,99117.47
2019-01-17T08:06:40.260Z,99119.40
2019-01-17T08:11:42.927Z,99119.45
2019-01-17T08:16:45.195Z,99114.34
2019-01-17T08:21:48.004Z,99117.09
2019-01-17T08:26:50.620Z,99102.48
2019-01-17T08:31:53.667Z,99120.95
2019-01-17T08:36:56.467Z,99110.78
2019-01-17T08:41:59.573Z,99110.58
2019-01-17T08:47:02.388Z,99113.19
2019-01-17T08:52:05.218Z,99104.88
2019-01-17T08:57:08.328Z,99112.16
2019-01-17T09:02:11.164Z,99112.72
2019-01-17T09:07:14.177Z,99106.77
2019-01-17T09:12:17.369Z,99124.77
2019-01-17T09:17:20.178Z,99130.59
2019-01-17T09:22:22.676Z,99134.30
2019-01-17T09:27:25.510Z,99123.42
2019-01-17T09:32:28.686Z,99127.71
2019-01-17T09:37:31.184Z,99137.18
2019-01-17T09:42:33.359Z,99114.87
2019-01-17T09:47:36.567Z,99105.92
2019-01-17T09:52:39.193Z,99113.00
2019-01-17T09:57:41.898Z,99108.02
2019-01-17T10:02:44.556Z,99095.02
2019-01-17T10:07:47.181Z,99095.92
2019-01-17T10:12:50.589Z,99091.11
2019-01-17T10:18:21.224Z,99095.23
2019-01-17T10:23:46.868Z,99098.37
2019-01-17T10:29:15.981Z,99090.37
2019-01-17T10:34:48.748Z,99083.09
2019-01-17T10:40:38.998Z,99075.27
2019-01-17T10:46:23.806Z,99065.83
2019-01-17T10:51:43.656Z,99082.59
2019-01-17T10:57:03.561Z,99060.23
2019-01-17T11:02:56.884Z,99075.66
2019-01-17T11:08:37.982Z,99087.02
2019-01-17T11:14:07.976Z,99057.14
2019-01-17T11:20:02.935Z,99096.55
2019-01-17T11:25:40.336Z,99105.03
2019-01-17T11:31:29.738Z,99091.17
2019-01-17T11:37:26.375Z,99091.96
2019-01-17T11:42:56.044Z,99082.55
2019-01-17T11:48:27.716Z,99091.02
2019-01-17T11:54:07.895Z,99076.63
2019-01-17T11:59:18.378Z,99076.28
2019-01-17T12:04:35.844Z,99078.06
2019-01-17T12:09:38.612Z,99071.26
2019-01-17T12:14:41.797Z,99078.54
2019-01-17T12:19:44.534Z,99074.38
2019-01-17T12:24:47.771Z,99097.05
2019-01-17T12:29:50.345Z,99071.81
2019-01-17T12:34:53.135Z,99079.14
2019-01-17T12:39:55.526Z,99085.77
2019-01-17T12:44:58.437Z,99095.03
2019-01-17T12:50:01.639Z,99096.84
2019-01-17T12:55:05.027Z,99088.17
2019-01-17T13:00:11.083Z,99106.84
2019-01-17T13:05:14.331Z,99096.58
2019-01-17T13:10:17.256Z,99106.56
2019-01-17T13:15:20.431Z,99105.80
2019-01-17T13:20:23.337Z,99121.69
2019-01-17T13:25:26.210Z,99124.11
2019-01-17T13:30:28.509Z,99124.63
2019-01-17T13:35:31.186Z,99128.03
2019-01-17T13:40:34.042Z,99134.62
2019-01-17T13:45:37.147Z,99134.14
2019-01-17T13:50:39.742Z,99139.31
2019-01-17T13:55:42.519Z,99140.95
2019-01-17T14:00:45.296Z,99150.17
2019-01-17T14:05:47.841Z,99154.70
2019-01-17T14:10:50.712Z,99157.03
2019-01-17T14:15:53.535Z,99171.63
2019-01-17T14:20:56.027Z,99171.46
2019-01-17T14:25:59.057Z,99176.53
2019-01-17T14:31:01.713Z,99189.98
2019-01-17T14:36:04.575Z,99180.03
2019-01-17T14:41:07.552Z,99187.94
2019-01-17T14:46:10.260Z,99206.86
2019-01-17T14:51:13.003Z,99215.89
2019-01-17T14:56:15.649Z,99226.60
2019-01-17T15:01:18.325Z,99230.81
2019-01-17T15:06:21.422Z,99239.17
2019-01-17T15:11:24.324Z,99248.94
2019-01-17T15:16:27.241Z,99256.17
2019-01-17T15:21:30.124Z,99263.64
2019-01-17T15:26:32.654Z,99302.16
2019-01-17T15:31:35.222Z,99297.73
2019-01-17T15:36:37.157Z,99303.19
2019-01-17T15:41:39.713Z,99310.61
2019-01-17T15:46:42.201Z,99324.06
2019-01-17T15:51:44.390Z,99327.00
2019-01-17T15:56:47.091Z,99335.80
2019-01-17T16:01:50.091Z,99338.30
2019-01-17T16:06:52.896Z,99341.12
2019-01-17T16:11:56.082Z,99345.73
2019-01-17T16:16:59.077Z,99346.25
2019-01-17T16:22:02.010Z,99351.25
2019-01-17T16:27:05.079Z,99361.34
2019-01-17T16:32:07.901Z,99370.09
2019-01-17T16:37:10.417Z,99386.18
2019-01-17T16:42:13.230Z,99404.04
2019-01-17T16:47:16.524Z,99414.73
2019-01-17T16:52:19.249Z,99418.62
2019-01-17T16:57:21.705Z,99428.28
2019-01-17T17:02:24.600Z,99439.25
2019-01-17T17:07:27.410Z,99432.21
2019-01-17T17:12:30.099Z,99445.08
2019-01-17T17:17:32.635Z,99458.15
2019-01-17T17:22:35.415Z,99451.00
2019-01-17T17:27:38.544Z,99478.52
2019-01-17T17:32:41.385Z,99490.51
2019-01-17T17:37:43.680Z,99499.55
2019-01-17T17:42:45.976Z,99517.16
2019-01-17T17:47:48.789Z,99528.65
2019-01-17T17:52:51.927Z,99544.53
2019-01-17T17:57:55.130Z,99558.19
2019-01-17T18:02:58.629Z,99571.72
2019-01-17T18:08:01.026Z,99577.32
2019-01-17T18:13:03.921Z,99598.09
2019-01-17T18:18:07.232Z,99610.34
2019-01-17T18:23:10.082Z,99623.40
2019-01-17T18:28:12.929Z,99628.69
2019-01-17T18:33:16.058Z,99642.87
2019-01-17T18:38:19.785Z,99660.45
2019-01-17T18:43:22.389Z,99669.97
2019-01-17T18:48:24.356Z,99706.44
2019-01-17T18:53:27.357Z,99725.59
2019-01-17T18:58:31.034Z,99753.31
2019-01-17T19:03:34.142Z,99754.41
2019-01-17T19:08:37.386Z,99767.66
2019-01-17T19:13:41.344Z,99797.16
2019-01-17T19:18:44.877Z,99808.22
2019-01-17T19:23:50.575Z,99836.55
2019-01-17T19:28:54.407Z,99841.52
2019-01-17T19:33:58.076Z,99875.73
2019-01-17T19:39:03.702Z,99896.94
2019-01-17T19:44:06.886Z,99919.23
2019-01-17T19:49:10.127Z,99915.06
2019-01-17T19:54:13.790Z,99925.15
2019-01-17T19:59:19.167Z,99932.52
2019-01-17T20:04:26.245Z,99949.13
2019-01-17T20:09:31.537Z,99965.95
2019-01-17T20:14:36.594Z,99984.61
2019-01-17T20:19:42.552Z,99999.63
2019-01-17T20:24:47.722Z,100016.17
2019-01-17T20:29:53.466Z,100028.16
2019-01-17T20:35:00.795Z,100045.74
2019-01-17T20:40:06.430Z,100062.91
2019-01-17T20:45:13.302Z,100062.79
2019-01-17T20:50:26.886Z,100073.90
2019-01-17T20:55:32.638Z,100082.11
2019-01-17T21:00:40.866Z,100096.62
2019-01-17T21:05:47.880Z,100118.77
2019-01-17T21:10:52.957Z,100118.28
2019-01-17T21:16:01.175Z,100130.37
2019-01-17T21:21:01.785Z,100157.33
2019-01-17T21:26:05.173Z,100167.00
2019-01-17T21:31:08.025Z,100180.41
2019-01-17T21:36:11.737Z,100188.03
2019-01-17T21:41:14.640Z,100205.72
2019-01-17T21:46:17.115Z,100210.81
2019-01-17T21:51:20.316Z,100233.29
2019-01-17T21:56:22.706Z,100257.59
2019-01-17T22:01:26.143Z,100258.52
2019-01-17T22:06:28.514Z,100266.94
2019-01-17T22:11:31.217Z,100285.13
2019-01-17T22:16:34.215Z,100303.52
2019-01-17T22:21:36.814Z,100317.58
2019-01-17T22:26:39.699Z,100326.92
2019-01-17T22:31:42.400Z,100339.45
2019-01-17T22:36:45.425Z,100347.28
2019-01-17T22:41:48.337Z,100375.28
2019-01-17T22:46:51.023Z,100370.40
2019-01-17T22:51:54.042Z,100383.75
2019-01-17T22:56:57.132Z,100397.84
2019-01-17T23:02:00.352Z,100399.54
2019-01-17T23:07:03.025Z,100414.78
2019-01-17T23:12:05.925Z,100430.80
2019-01-17T23:17:09.032Z,100440.83
2019-01-17T23:22:11.503Z,100450.38
2019-01-17T23:27:14.464Z,100450.16
2019-01-17T23:32:17.339Z,100460.08
2019-01-17T23:37:20.446Z,100483.21
2019-01-17T23:42:22.911Z,100491.00
2019-01-17T23:47:25.732Z,100492.61
2019-01-17T23:52:28.839Z,100507.84
2019-01-17T23:57:31.495Z,100514.18
